Chesterfield Township, Michigan
Current Conditions -  °F | °C
As of 9:30 AM on Tuesday 21 Oct 2014 (Local Time) from KMTC Reporting Station
Overcast Overcast  
Wind Chill: 40°   Ceiling: 2300
Heat Index: 46°   Visibility: 12mi
Dew Point: 45°   Wind: 15mph
Humidity: 93%   Direction: 340°NNW
Pressure: 29.96"   Gusts: NA
Location:  42.6875°N, 82.8325°W
Report Text: KMTC 211330Z 34013KT 12SM FEW010 SCT017 OVC023 08/07 A2996
Loading
Personal Weather Stations






























Interactive Weather Map
Tropical Storm Tracking
New forecast layout! Learn more

10-Day Weather Forecast

Advertisements
Track Severe Weather on mobile